createdAt,value
2022-09-12T00:02:05.281Z,16.45
2022-09-12T00:05:05.228Z,16.45
2022-09-12T00:08:05.233Z,16.45
2022-09-12T00:11:05.250Z,16.45
2022-09-12T00:14:05.244Z,16.45
2022-09-12T00:17:05.235Z,16.45
2022-09-12T00:20:05.242Z,16.45
2022-09-12T00:23:05.250Z,16.45
2022-09-12T00:26:05.243Z,16.45
2022-09-12T00:29:05.240Z,16.4
2022-09-12T00:32:05.235Z,16.4
2022-09-12T00:35:05.246Z,16.35
2022-09-12T00:38:05.237Z,16.35
2022-09-12T00:41:05.234Z,16.35
2022-09-12T00:44:05.232Z,16.3
2022-09-12T00:47:05.237Z,16.3
2022-09-12T00:50:05.238Z,16.3
2022-09-12T00:53:05.246Z,16.3
2022-09-12T00:56:05.239Z,16.3
2022-09-12T00:59:05.244Z,16.2
2022-09-12T01:02:05.291Z,16.2
2022-09-12T01:05:05.244Z,16.2
2022-09-12T01:08:05.246Z,16.2
2022-09-12T01:11:05.246Z,16.2
2022-09-12T01:14:05.242Z,16.15
2022-09-12T01:17:05.236Z,16.15
2022-09-12T01:20:05.241Z,16.15
2022-09-12T01:23:05.232Z,16.15
2022-09-12T01:26:05.241Z,16.15
2022-09-12T01:29:05.247Z,16.1
2022-09-12T01:32:05.270Z,16.05
2022-09-12T01:35:05.238Z,16.05
2022-09-12T01:38:05.242Z,16.05
2022-09-12T01:41:05.244Z,16
2022-09-12T01:44:05.240Z,16
2022-09-12T01:47:05.237Z,16
2022-09-12T01:50:05.238Z,16
2022-09-12T01:53:05.252Z,16
2022-09-12T01:56:05.240Z,15.95
2022-09-12T01:59:05.242Z,15.95
2022-09-12T02:02:05.269Z,15.95
2022-09-12T02:05:05.239Z,15.9
2022-09-12T02:08:05.237Z,15.9
2022-09-12T02:11:05.245Z,15.9
2022-09-12T02:14:05.235Z,15.9
2022-09-12T02:17:05.241Z,15.9
2022-09-12T02:20:05.255Z,15.85
2022-09-12T02:23:05.234Z,15.85
2022-09-12T02:26:05.244Z,15.85
2022-09-12T02:29:05.234Z,15.8
2022-09-12T02:32:05.240Z,15.8
2022-09-12T02:35:05.245Z,15.8
2022-09-12T02:38:05.250Z,15.8
2022-09-12T02:41:05.243Z,15.8
2022-09-12T02:44:05.250Z,15.8
2022-09-12T02:47:05.238Z,15.75
2022-09-12T02:50:05.364Z,15.75
2022-09-12T02:53:05.245Z,15.7
2022-09-12T02:56:05.250Z,15.7
2022-09-12T02:59:05.248Z,15.7
2022-09-12T03:02:05.280Z,15.7
2022-09-12T03:05:05.251Z,15.7
2022-09-12T03:08:05.261Z,15.65
2022-09-12T03:11:05.246Z,15.65
2022-09-12T03:14:05.263Z,15.65
2022-09-12T03:17:05.256Z,15.6
2022-09-12T03:20:05.256Z,15.6
2022-09-12T03:23:05.259Z,15.6
2022-09-12T03:26:05.250Z,15.6
2022-09-12T03:29:05.262Z,15.6
2022-09-12T03:32:05.252Z,15.6
2022-09-12T03:35:05.256Z,15.55
2022-09-12T03:38:05.262Z,15.55
2022-09-12T03:41:05.253Z,15.5
2022-09-12T03:44:05.260Z,15.5
2022-09-12T03:47:09.286Z,15.5
2022-09-12T03:50:05.263Z,15.5
2022-09-12T03:53:05.254Z,15.5
2022-09-12T03:56:05.258Z,15.4
2022-09-12T03:59:05.252Z,15.4
2022-09-12T04:02:05.284Z,15.4
2022-09-12T04:05:05.258Z,15.4
2022-09-12T04:08:05.259Z,15.4
2022-09-12T04:11:05.265Z,15.4
2022-09-12T04:14:05.259Z,15.4
2022-09-12T04:17:05.259Z,15.4
2022-09-12T04:20:05.260Z,15.3
2022-09-12T04:23:05.267Z,15.3
2022-09-12T04:26:05.250Z,15.3
2022-09-12T04:29:05.265Z,15.3
2022-09-12T04:32:05.254Z,15.3
2022-09-12T04:35:05.259Z,15.3
2022-09-12T04:38:05.264Z,15.3
2022-09-12T04:41:05.257Z,15.3
2022-09-12T04:44:05.271Z,15.3
2022-09-12T04:47:05.264Z,15.25
2022-09-12T04:50:05.258Z,15.25
2022-09-12T04:53:05.264Z,15.25
2022-09-12T04:56:05.263Z,15.2
2022-09-12T04:59:05.266Z,15.2
2022-09-12T05:02:05.311Z,15.2
2022-09-12T05:05:05.264Z,15.2
2022-09-12T05:08:05.266Z,15.15
2022-09-12T05:11:05.255Z,15.15
2022-09-12T05:14:05.278Z,15.1
2022-09-12T05:17:05.263Z,15.1
2022-09-12T05:20:05.260Z,15.1
2022-09-12T05:23:05.271Z,15.1
2022-09-12T05:26:05.260Z,15.1
2022-09-12T05:29:05.261Z,15.1
2022-09-12T05:32:05.267Z,15.1
2022-09-12T05:35:05.269Z,15.1
2022-09-12T05:38:05.266Z,15.1
2022-09-12T05:41:05.261Z,15.05
2022-09-12T05:44:05.266Z,15.05
2022-09-12T05:47:05.271Z,15.05
2022-09-12T05:50:05.283Z,15.05
2022-09-12T05:53:05.275Z,15.05
2022-09-12T05:56:05.282Z,15.05
2022-09-12T05:59:05.271Z,15.05
2022-09-12T06:02:05.325Z,15.1
2022-09-12T06:05:05.272Z,15.1
2022-09-12T06:08:05.283Z,15.15
2022-09-12T06:11:05.274Z,15.15
2022-09-12T06:14:05.282Z,15.15
2022-09-12T06:17:05.307Z,15.15
2022-09-12T06:20:05.276Z,15.2
2022-09-12T06:23:05.273Z,15.2
2022-09-12T06:26:05.277Z,15.25
2022-09-12T06:29:05.275Z,15.25
2022-09-12T06:32:05.271Z,15.25
2022-09-12T06:35:05.272Z,15.3
2022-09-12T06:38:05.280Z,15.3
2022-09-12T06:41:05.269Z,15.3
2022-09-12T06:44:05.281Z,15.4
2022-09-12T06:47:05.283Z,15.4
2022-09-12T06:50:05.283Z,15.4
2022-09-12T06:53:05.264Z,15.45
2022-09-12T06:56:05.283Z,15.45
2022-09-12T06:59:05.277Z,15.5
2022-09-12T07:02:05.302Z,15.55
2022-09-12T07:05:05.275Z,15.55
2022-09-12T07:08:05.280Z,15.6
2022-09-12T07:11:05.278Z,15.7
2022-09-12T07:14:05.305Z,15.7
2022-09-12T07:17:05.288Z,15.7
2022-09-12T07:20:05.277Z,15.75
2022-09-12T07:23:05.270Z,15.8
2022-09-12T07:26:05.278Z,15.85
2022-09-12T07:29:25.437Z,16
2022-09-12T07:32:05.277Z,16.05
2022-09-12T07:35:05.277Z,16.1
2022-09-12T07:38:05.270Z,16.15
2022-09-12T07:41:05.272Z,16.2
2022-09-12T07:44:05.282Z,16.25
2022-09-12T07:47:05.266Z,16.4
2022-09-12T07:50:05.285Z,16.5
2022-09-12T07:53:05.272Z,16.5
2022-09-12T07:56:05.283Z,16.5
2022-09-12T07:59:05.282Z,16.6
2022-09-12T08:02:05.311Z,16.65
2022-09-12T08:05:05.281Z,16.7
2022-09-12T08:08:05.268Z,16.8
2022-09-12T08:11:05.276Z,16.85
2022-09-12T08:14:05.276Z,17.15
2022-09-12T08:17:05.281Z,17.45
2022-09-12T08:20:05.271Z,17.7
2022-09-12T08:23:05.271Z,17.95
2022-09-12T08:26:06.243Z,18.15
2022-09-12T08:29:05.279Z,18.25
2022-09-12T08:32:05.267Z,18.7
2022-09-12T08:35:05.272Z,18.8
2022-09-12T08:38:05.283Z,18.9
2022-09-12T08:41:05.289Z,19.05
2022-09-12T08:44:05.278Z,19.1
2022-09-12T08:47:05.271Z,19.25
2022-09-12T08:50:05.271Z,19.35
2022-09-12T08:53:05.279Z,19.45
2022-09-12T08:56:05.273Z,19.5
2022-09-12T08:59:05.281Z,19.6
2022-09-12T09:02:05.321Z,19.65
2022-09-12T09:05:05.283Z,19.8
2022-09-12T09:08:05.268Z,19.95
2022-09-12T09:11:05.300Z,20
2022-09-12T09:14:05.544Z,20.05
2022-09-12T09:17:05.286Z,20.05
2022-09-12T09:20:05.271Z,20.05
2022-09-12T09:23:05.288Z,20.05
2022-09-12T09:26:05.274Z,20.15
2022-09-12T09:29:05.287Z,20.2
2022-09-12T09:32:05.283Z,20.25
2022-09-12T09:35:05.271Z,20.3
2022-09-12T09:38:05.283Z,20.35
2022-09-12T09:41:05.283Z,20.35
2022-09-12T09:44:05.302Z,20.4
2022-09-12T09:47:05.269Z,20.4
2022-09-12T09:50:05.281Z,20.5
2022-09-12T09:53:05.271Z,20.5
2022-09-12T09:56:05.279Z,20.55
2022-09-12T09:59:05.283Z,20.5
2022-09-12T10:02:05.336Z,20.55
2022-09-12T10:05:05.275Z,20.5
2022-09-12T10:08:05.264Z,20.55
2022-09-12T10:11:05.280Z,20.55
2022-09-12T10:14:05.294Z,20.6
2022-09-12T10:17:05.274Z,20.7
2022-09-12T10:20:20.767Z,20.8
2022-09-12T10:23:05.282Z,20.9
2022-09-12T10:26:05.272Z,20.95
2022-09-12T10:29:05.278Z,20.9
2022-09-12T10:32:05.279Z,20.9
2022-09-12T10:35:05.280Z,20.9
2022-09-12T10:38:05.275Z,20.95
2022-09-12T10:41:05.276Z,20.95
2022-09-12T10:44:05.272Z,21
2022-09-12T10:47:05.291Z,21
2022-09-12T10:50:05.268Z,21.05
2022-09-12T10:53:05.272Z,21.05
2022-09-12T10:56:05.283Z,21.1
2022-09-12T10:59:05.270Z,21.05
2022-09-12T11:02:05.343Z,21.05
2022-09-12T11:05:05.276Z,21.05
2022-09-12T11:08:05.287Z,21.1
2022-09-12T11:11:05.276Z,21.1
2022-09-12T11:14:05.300Z,21.1
2022-09-12T11:17:05.289Z,21.05
2022-09-12T11:20:05.295Z,21.1
2022-09-12T11:23:05.283Z,21.15
2022-09-12T11:26:05.280Z,21.15
2022-09-12T11:29:05.299Z,21.25
2022-09-12T11:32:05.288Z,21.2
2022-09-12T11:35:05.280Z,21.25
2022-09-12T11:38:05.292Z,21.3
2022-09-12T11:41:05.286Z,21.35
2022-09-12T11:44:05.288Z,21.35
2022-09-12T11:47:05.286Z,21.4
2022-09-12T11:50:05.298Z,21.4
2022-09-12T11:53:05.282Z,21.4
2022-09-12T11:56:05.331Z,21.35
2022-09-12T11:59:05.291Z,21.35
2022-09-12T12:02:05.346Z,21.45
2022-09-12T12:05:05.292Z,21.45
2022-09-12T12:08:05.282Z,21.5
2022-09-12T12:11:05.281Z,21.6
2022-09-12T12:14:05.279Z,21.6
2022-09-12T12:17:05.299Z,21.65
2022-09-12T12:20:08.285Z,21.65
2022-09-12T12:23:05.290Z,21.75
2022-09-12T12:26:05.283Z,21.8
2022-09-12T12:29:05.283Z,21.8
2022-09-12T12:32:05.277Z,21.9
2022-09-12T12:35:05.280Z,21.9
2022-09-12T12:38:05.283Z,21.95
2022-09-12T12:41:05.293Z,21.95
2022-09-12T12:44:05.278Z,22
2022-09-12T12:47:05.281Z,22
2022-09-12T12:50:05.286Z,22.05
2022-09-12T12:53:05.274Z,22
2022-09-12T12:56:05.283Z,22
2022-09-12T12:59:05.291Z,22
2022-09-12T13:02:05.329Z,22.05
2022-09-12T13:05:05.304Z,22.05
2022-09-12T13:08:05.283Z,22.05
2022-09-12T13:11:05.304Z,22.05
2022-09-12T13:14:05.282Z,22.1
2022-09-12T13:17:05.303Z,22.1
2022-09-12T13:20:26.543Z,22.1
2022-09-12T13:23:05.286Z,22.15
2022-09-12T13:26:05.356Z,22.15
2022-09-12T13:29:05.295Z,22.2
2022-09-12T13:32:05.282Z,22.2
2022-09-12T13:35:05.303Z,22.15
2022-09-12T13:38:05.297Z,22
2022-09-12T13:41:05.290Z,21.95
2022-09-12T13:44:05.294Z,21.95
2022-09-12T13:47:05.296Z,21.95
2022-09-12T13:50:05.297Z,22
2022-09-12T13:53:05.285Z,22
2022-09-12T13:56:05.290Z,22
2022-09-12T13:59:05.310Z,22
2022-09-12T14:02:05.288Z,22
2022-09-12T14:05:05.300Z,22
2022-09-12T14:08:05.305Z,21.95
2022-09-12T14:11:05.286Z,21.95
2022-09-12T14:14:05.291Z,21.9
2022-09-12T14:17:05.290Z,21.95
2022-09-12T14:20:05.282Z,21.95
2022-09-12T14:23:05.296Z,21.9
2022-09-12T14:26:05.293Z,21.9
2022-09-12T14:29:05.294Z,21.9
2022-09-12T14:32:05.289Z,21.85
2022-09-12T14:35:05.289Z,21.85
2022-09-12T14:38:05.285Z,21.85
2022-09-12T14:41:05.296Z,21.8
2022-09-12T14:44:05.296Z,21.8
2022-09-12T14:47:05.292Z,21.8
2022-09-12T14:50:08.223Z,21.8
2022-09-12T14:53:05.304Z,21.8
2022-09-12T14:56:05.291Z,21.7
2022-09-12T14:59:05.290Z,21.7
2022-09-12T15:02:05.289Z,21.7
2022-09-12T15:05:05.291Z,21.7
2022-09-12T15:08:05.291Z,21.7
2022-09-12T15:11:05.291Z,21.7
2022-09-12T15:14:05.300Z,21.65
2022-09-12T15:17:05.291Z,21.65
2022-09-12T15:20:05.292Z,21.6
2022-09-12T15:23:05.291Z,21.55
2022-09-12T15:26:05.293Z,21.55
2022-09-12T15:29:05.288Z,21.5
2022-09-12T15:32:05.294Z,21.5
2022-09-12T15:35:05.297Z,21.5
2022-09-12T15:38:05.350Z,21.5
2022-09-12T15:41:09.589Z,21.5
2022-09-12T15:44:06.736Z,21.5
2022-09-12T15:47:06.670Z,21.5
2022-09-12T15:50:06.666Z,21.55
2022-09-12T15:53:06.652Z,21.55
2022-09-12T15:56:06.652Z,21.55
2022-09-12T15:59:06.645Z,21.55
2022-09-12T16:02:06.675Z,21.55
2022-09-12T16:05:06.636Z,21.55
2022-09-12T16:08:06.638Z,21.5
2022-09-12T16:11:06.647Z,21.5
2022-09-12T16:14:06.688Z,21.45
2022-09-12T16:17:06.649Z,21.4
2022-09-12T16:20:06.656Z,21.4
2022-09-12T16:23:06.650Z,21.4
2022-09-12T16:26:06.647Z,21.35
2022-09-12T16:29:06.662Z,21.3
2022-09-12T16:32:06.652Z,21.25
2022-09-12T16:35:06.648Z,21.2
2022-09-12T16:38:06.651Z,21.2
2022-09-12T16:41:06.653Z,21.2
2022-09-12T16:44:06.648Z,21.2
2022-09-12T16:47:06.663Z,21.15
2022-09-12T16:50:06.647Z,21.15
2022-09-12T16:53:06.653Z,21.15
2022-09-12T16:56:06.670Z,21.1
2022-09-12T16:59:06.656Z,21.1
2022-09-12T17:02:06.749Z,21.1
2022-09-12T17:05:06.658Z,21.1
2022-09-12T17:08:06.663Z,21.1
2022-09-12T17:11:06.653Z,21.05
2022-09-12T17:14:07.207Z,21
2022-09-12T17:17:06.658Z,21
2022-09-12T17:20:06.656Z,20.95
2022-09-12T17:23:09.573Z,20.9
2022-09-12T17:26:06.690Z,20.9
2022-09-12T17:29:06.663Z,20.85
2022-09-12T17:32:06.655Z,20.8
2022-09-12T17:35:06.660Z,20.8
2022-09-12T17:38:06.653Z,20.8
2022-09-12T17:41:06.663Z,20.8
2022-09-12T17:44:06.662Z,20.7
2022-09-12T17:47:06.656Z,20.7
2022-09-12T17:50:30.217Z,20.65
2022-09-12T17:53:06.666Z,20.6
2022-09-12T17:56:06.726Z,20.6
2022-09-12T17:59:06.670Z,20.5
2022-09-12T18:02:06.748Z,20.5
2022-09-12T18:05:06.854Z,20.4
2022-09-12T18:08:06.715Z,20.35
2022-09-12T18:11:06.707Z,20.35
2022-09-12T18:14:06.717Z,20.3
2022-09-12T18:17:06.703Z,20.25
2022-09-12T18:20:06.707Z,20.15
2022-09-12T18:23:06.715Z,20.15
2022-09-12T18:26:06.707Z,20.1
2022-09-12T18:29:06.702Z,20.05
2022-09-12T18:32:06.704Z,20.05
2022-09-12T18:35:06.709Z,19.9
2022-09-12T18:38:06.707Z,19.9
2022-09-12T18:41:06.693Z,19.85
2022-09-12T18:44:06.751Z,19.75
2022-09-12T18:47:06.702Z,19.75
2022-09-12T18:50:06.697Z,19.7
2022-09-12T18:53:06.701Z,19.65
2022-09-12T18:56:06.706Z,19.55
2022-09-12T18:59:06.709Z,19.55
2022-09-12T19:02:06.737Z,19.55
2022-09-12T19:05:06.699Z,19.45
2022-09-12T19:08:06.716Z,19.45
2022-09-12T19:11:06.697Z,19.4
2022-09-12T19:14:06.713Z,19.35
2022-09-12T19:17:06.708Z,19.35
2022-09-12T19:20:06.705Z,19.25
2022-09-12T19:23:06.721Z,19.25
2022-09-12T19:26:06.703Z,19.15
2022-09-12T19:29:06.707Z,19.15
2022-09-12T19:32:06.710Z,19.1
2022-09-12T19:35:06.717Z,19.05
2022-09-12T19:38:06.710Z,19.05
2022-09-12T19:41:06.695Z,19
2022-09-12T19:44:06.743Z,18.95
2022-09-12T19:47:06.708Z,18.95
2022-09-12T19:50:06.709Z,18.9
2022-09-12T19:53:06.717Z,18.85
2022-09-12T19:56:06.707Z,18.8
2022-09-12T19:59:06.711Z,18.8
2022-09-12T20:02:06.842Z,18.75
2022-09-12T20:05:06.716Z,18.75
2022-09-12T20:08:06.711Z,18.7
2022-09-12T20:11:06.711Z,18.7
2022-09-12T20:14:06.720Z,18.65
2022-09-12T20:17:06.717Z,18.65
2022-09-12T20:20:06.716Z,18.6
2022-09-12T20:23:06.705Z,18.55
2022-09-12T20:26:06.717Z,18.55
2022-09-12T20:29:06.737Z,18.55
2022-09-12T20:32:06.719Z,18.55
2022-09-12T20:35:06.709Z,18.5
2022-09-12T20:38:06.714Z,18.45
2022-09-12T20:41:06.716Z,18.45
2022-09-12T20:44:06.718Z,18.45
2022-09-12T20:47:06.729Z,18.45
2022-09-12T20:50:06.721Z,18.4
2022-09-12T20:53:06.721Z,18.4
2022-09-12T20:56:06.717Z,18.35
2022-09-12T20:59:06.730Z,18.35
2022-09-12T21:02:06.854Z,18.35
2022-09-12T21:05:06.720Z,18.35
2022-09-12T21:08:06.720Z,18.3
2022-09-12T21:11:06.721Z,18.3
2022-09-12T21:14:06.725Z,18.3
2022-09-12T21:17:06.718Z,18.25
2022-09-12T21:20:10.694Z,18.25
2022-09-12T21:23:06.735Z,18.25
2022-09-12T21:26:06.724Z,18.25
2022-09-12T21:29:06.722Z,18.25
2022-09-12T21:32:09.049Z,18.25
2022-09-12T21:35:06.726Z,18.2
2022-09-12T21:38:06.735Z,18.2
2022-09-12T21:41:06.723Z,18.2
2022-09-12T21:44:06.726Z,18.2
2022-09-12T21:47:06.740Z,18.2
2022-09-12T21:50:06.726Z,18.15
2022-09-12T21:53:06.735Z,18.1
2022-09-12T21:56:06.737Z,18.1
2022-09-12T21:59:06.737Z,18.1
2022-09-12T22:02:06.757Z,18.1
2022-09-12T22:05:06.742Z,18.1
2022-09-12T22:08:06.729Z,18.05
2022-09-12T22:11:06.729Z,18.05
2022-09-12T22:14:06.728Z,18
2022-09-12T22:17:06.746Z,18
2022-09-12T22:20:06.734Z,18
2022-09-12T22:23:06.728Z,18
2022-09-12T22:26:06.726Z,17.9
2022-09-12T22:29:06.735Z,17.9
2022-09-12T22:32:06.740Z,17.9
2022-09-12T22:35:06.733Z,17.9
2022-09-12T22:38:06.738Z,17.85
2022-09-12T22:41:06.744Z,17.8
2022-09-12T22:44:06.749Z,17.8
2022-09-12T22:47:06.736Z,17.8
2022-09-12T22:50:06.731Z,17.8
2022-09-12T22:53:06.739Z,17.8
2022-09-12T22:56:06.739Z,17.75
2022-09-12T22:59:06.741Z,17.7
2022-09-12T23:02:06.736Z,17.7
2022-09-12T23:05:06.740Z,17.7
2022-09-12T23:08:06.742Z,17.7
2022-09-12T23:11:06.735Z,17.7
2022-09-12T23:14:06.735Z,17.7
2022-09-12T23:17:06.741Z,17.7
2022-09-12T23:20:06.739Z,17.65
2022-09-12T23:23:06.746Z,17.6
2022-09-12T23:26:06.734Z,17.6
2022-09-12T23:29:06.748Z,17.6
2022-09-12T23:32:06.763Z,17.6
2022-09-12T23:35:06.738Z,17.55
2022-09-12T23:38:07.566Z,17.5
2022-09-12T23:41:06.742Z,17.5
2022-09-12T23:44:06.735Z,17.5
2022-09-12T23:47:06.744Z,17.45
2022-09-12T23:50:06.732Z,17.45
2022-09-12T23:53:06.737Z,17.4
2022-09-12T23:56:06.742Z,17.4
2022-09-12T23:59:06.742Z,17.35
